createdAt,value
2017-12-11T00:00:56.237Z,9.25
2017-12-11T00:03:23.729Z,9.05
2017-12-11T00:05:51.247Z,9.60
2017-12-11T00:08:18.713Z,9.20
2017-12-11T00:10:46.220Z,9.05
2017-12-11T00:13:13.738Z,9.20
2017-12-11T00:15:42.008Z,8.73
2017-12-11T00:18:09.496Z,8.27
2017-12-11T00:20:36.984Z,8.80
2017-12-11T00:23:04.452Z,8.07
2017-12-11T00:25:31.948Z,8.63
2017-12-11T00:28:00.210Z,8.57
2017-12-11T00:30:27.731Z,8.75
2017-12-11T00:32:55.199Z,8.20
2017-12-11T00:35:22.674Z,8.70
2017-12-11T00:37:50.180Z,9.35
2017-12-11T00:40:17.678Z,8.65
2017-12-11T00:42:45.212Z,9.52
2017-12-11T00:45:12.833Z,9.23
2017-12-11T00:47:40.402Z,10.27
2017-12-11T00:50:08.650Z,10.73
2017-12-11T00:52:36.141Z,9.18
2017-12-11T00:55:04.421Z,9.82
2017-12-11T00:57:32.000Z,9.48
2017-12-11T00:59:59.624Z,9.73
2017-12-11T01:02:27.994Z,9.20
2017-12-11T01:04:56.327Z,9.25
2017-12-11T01:07:23.842Z,9.82
2017-12-11T01:09:52.210Z,9.30
2017-12-11T01:12:20.544Z,9.65
2017-12-11T01:14:48.067Z,9.68
2017-12-11T01:17:15.648Z,10.30
2017-12-11T01:19:43.154Z,10.35
2017-12-11T01:22:10.705Z,9.75
2017-12-11T01:24:38.284Z,10.50
2017-12-11T01:27:06.645Z,9.77
2017-12-11T01:29:34.156Z,11.00
2017-12-11T01:32:01.707Z,10.70
2017-12-11T01:34:29.333Z,10.02
2017-12-11T01:36:56.858Z,10.10
2017-12-11T01:39:24.422Z,10.80
2017-12-11T01:41:52.014Z,10.30
2017-12-11T01:44:19.602Z,9.32
2017-12-11T01:46:47.167Z,10.45
2017-12-11T01:49:14.749Z,9.70
2017-12-11T01:51:42.275Z,10.23
2017-12-11T01:54:10.534Z,10.23
2017-12-11T01:56:38.100Z,9.77
2017-12-11T01:59:06.359Z,10.43
2017-12-11T02:01:33.914Z,9.52
2017-12-11T02:04:01.487Z,9.65
2017-12-11T02:06:29.068Z,9.43
2017-12-11T02:08:56.679Z,10.48
2017-12-11T02:11:24.245Z,8.85
2017-12-11T02:13:51.829Z,9.07
2017-12-11T02:16:19.388Z,9.73
2017-12-11T02:18:46.963Z,9.40
2017-12-11T02:21:15.341Z,9.20
2017-12-11T02:23:42.900Z,9.60
2017-12-11T02:26:10.455Z,9.98
2017-12-11T02:28:38.813Z,10.95
2017-12-11T02:31:06.389Z,9.95
2017-12-11T02:33:34.748Z,9.45
2017-12-11T02:36:02.369Z,10.25
2017-12-11T02:38:29.927Z,10.00
2017-12-11T02:40:57.459Z,9.50
2017-12-11T02:43:24.954Z,9.93
2017-12-11T02:45:52.558Z,10.25
2017-12-11T02:48:20.158Z,11.20
2017-12-11T02:50:47.759Z,10.18
2017-12-11T02:53:15.357Z,9.75
2017-12-11T02:55:42.978Z,10.48
2017-12-11T02:58:10.573Z,10.80
2017-12-11T03:00:38.132Z,10.75
2017-12-11T03:03:06.526Z,11.10
2017-12-11T03:05:34.087Z,10.48
2017-12-11T03:08:01.650Z,10.95
2017-12-11T03:10:29.242Z,10.68
2017-12-11T03:12:56.762Z,10.55
2017-12-11T03:15:24.356Z,10.30
2017-12-11T03:17:51.932Z,10.90
2017-12-11T03:20:19.449Z,11.32
2017-12-11T03:22:47.055Z,11.40
2017-12-11T03:25:14.603Z,10.88
2017-12-11T03:27:42.222Z,11.55
2017-12-11T03:30:09.839Z,12.20
2017-12-11T03:32:37.422Z,12.02
2017-12-11T03:35:04.966Z,11.98
2017-12-11T03:37:32.581Z,11.45
2017-12-11T03:40:00.125Z,12.13
2017-12-11T03:42:27.637Z,12.13
2017-12-11T03:44:55.240Z,11.52
2017-12-11T03:47:22.813Z,12.52
2017-12-11T03:49:50.326Z,12.85
2017-12-11T03:52:17.887Z,12.43
2017-12-11T03:54:45.455Z,11.93
2017-12-11T03:57:12.985Z,12.55
2017-12-11T03:59:40.532Z,13.10
2017-12-11T04:02:08.052Z,13.10
2017-12-11T04:04:36.346Z,12.52
2017-12-11T04:07:03.878Z,13.13
2017-12-11T04:09:32.180Z,13.43
2017-12-11T04:12:14.228Z,13.23
2017-12-11T04:14:41.767Z,12.82
2017-12-11T04:17:09.303Z,13.13
2017-12-11T04:19:36.785Z,13.18
2017-12-11T04:22:04.323Z,13.13
2017-12-11T04:24:31.855Z,13.68
2017-12-11T04:27:00.158Z,12.70
2017-12-11T04:29:27.660Z,13.27
2017-12-11T04:31:55.170Z,12.77
2017-12-11T04:34:22.681Z,13.32
2017-12-11T04:36:50.207Z,13.07
2017-12-11T04:39:17.720Z,12.80
2017-12-11T04:41:45.995Z,13.73
2017-12-11T04:44:14.273Z,13.93
2017-12-11T04:46:42.542Z,14.63
2017-12-11T04:49:10.852Z,15.15
2017-12-11T04:51:38.380Z,14.80
2017-12-11T04:54:06.633Z,17.05
2017-12-11T04:56:34.146Z,15.77
2017-12-11T04:59:01.639Z,15.68
2017-12-11T05:01:29.237Z,16.12
2017-12-11T05:03:56.757Z,15.48
2017-12-11T05:06:24.329Z,16.37
2017-12-11T05:08:51.898Z,15.80
2017-12-11T05:11:19.497Z,16.23
2017-12-11T05:13:47.118Z,16.98
2017-12-11T05:16:15.507Z,16.58
2017-12-11T05:18:43.891Z,16.35
2017-12-11T05:21:11.534Z,16.10
2017-12-11T05:23:39.053Z,16.40
2017-12-11T05:26:06.626Z,16.70
2017-12-11T05:28:34.195Z,17.70
2017-12-11T05:31:01.856Z,16.48
2017-12-11T05:33:29.477Z,18.92
2017-12-11T05:35:57.057Z,17.12
2017-12-11T05:38:24.633Z,17.05
2017-12-11T05:40:52.242Z,17.23
2017-12-11T05:43:19.809Z,17.00
2017-12-11T05:45:47.334Z,18.00
2017-12-11T05:48:14.925Z,18.05
2017-12-11T05:50:42.493Z,18.15
2017-12-11T05:53:10.812Z,16.52
2017-12-11T05:55:40.052Z,16.62
2017-12-11T05:58:18.699Z,17.27
2017-12-11T06:00:46.306Z,16.25
2017-12-11T06:03:13.806Z,16.77
2017-12-11T06:05:41.456Z,17.30
2017-12-11T06:08:09.682Z,18.15
2017-12-11T06:10:37.197Z,18.45
2017-12-11T06:13:04.751Z,17.48
2017-12-11T06:15:32.299Z,18.48
2017-12-11T06:18:00.594Z,18.08
2017-12-11T06:20:28.125Z,19.17
2017-12-11T06:22:56.490Z,18.48
2017-12-11T06:25:24.055Z,19.05
2017-12-11T06:27:51.607Z,17.98
2017-12-11T06:30:19.167Z,17.80
2017-12-11T06:32:46.727Z,17.10
2017-12-11T06:35:14.314Z,17.15
2017-12-11T06:37:41.876Z,16.77
2017-12-11T06:40:10.235Z,16.80
2017-12-11T06:42:37.815Z,16.25
2017-12-11T06:45:06.178Z,16.75
2017-12-11T06:47:33.712Z,17.75
2017-12-11T06:50:01.289Z,16.55
2017-12-11T06:52:29.644Z,16.20
2017-12-11T06:54:57.247Z,17.40
2017-12-11T06:57:24.814Z,16.42
2017-12-11T06:59:52.421Z,18.05
2017-12-11T07:02:21.259Z,16.65
2017-12-11T07:04:52.716Z,18.02
2017-12-11T07:07:20.291Z,17.35
2017-12-11T07:09:47.949Z,18.25
2017-12-11T07:12:15.515Z,17.30
2017-12-11T07:14:43.488Z,17.00
2017-12-11T07:17:11.739Z,18.58
2017-12-11T07:19:40.440Z,18.33
2017-12-11T07:22:07.995Z,18.92
2017-12-11T07:24:35.578Z,17.40
2017-12-11T07:27:03.173Z,18.58
2017-12-11T07:29:30.793Z,17.95
2017-12-11T07:31:58.366Z,17.83
2017-12-11T07:34:25.988Z,19.08
2017-12-11T07:36:53.562Z,19.20
2017-12-11T07:39:21.181Z,19.80
2017-12-11T07:41:49.606Z,20.00
2017-12-11T07:44:17.204Z,19.65
2017-12-11T07:46:44.757Z,20.95
2017-12-11T07:49:12.310Z,19.65
2017-12-11T07:51:39.888Z,19.90
2017-12-11T07:54:07.449Z,25.08
2017-12-11T07:56:35.073Z,50.28
2017-12-11T07:59:02.776Z,48.47
2017-12-11T08:01:30.374Z,41.63
2017-12-11T08:03:58.097Z,36.80
2017-12-11T08:06:25.630Z,35.72
2017-12-11T08:08:53.340Z,32.78
2017-12-11T08:11:21.071Z,25.37
2017-12-11T08:13:49.875Z,25.42
2017-12-11T08:16:17.551Z,23.15
2017-12-11T08:18:45.945Z,23.77
2017-12-11T08:21:14.299Z,22.62
2017-12-11T08:23:41.925Z,21.92
2017-12-11T08:26:09.598Z,21.52
2017-12-11T08:28:37.269Z,22.13
2017-12-11T08:31:04.924Z,21.00
2017-12-11T08:33:32.568Z,22.73
2017-12-11T08:36:00.266Z,22.27
2017-12-11T08:38:27.908Z,22.52
2017-12-11T08:41:10.879Z,23.05
2017-12-11T08:43:50.780Z,23.17
2017-12-11T08:46:18.491Z,21.98
2017-12-11T08:48:46.178Z,21.75
2017-12-11T08:51:13.907Z,20.52
2017-12-11T08:53:42.329Z,20.73
2017-12-11T08:56:10.032Z,21.02
2017-12-11T08:58:37.718Z,20.58
2017-12-11T09:01:05.392Z,19.92
2017-12-11T09:03:33.226Z,20.70
2017-12-11T09:06:01.759Z,20.88
2017-12-11T09:08:29.992Z,18.23
2017-12-11T09:10:57.750Z,18.35
2017-12-11T09:13:26.901Z,18.52
2017-12-11T09:15:54.553Z,19.30
2017-12-11T09:18:22.176Z,21.85
2017-12-11T09:20:50.661Z,18.40
2017-12-11T09:23:19.126Z,18.87
2017-12-11T09:25:47.703Z,19.12
2017-12-11T09:28:18.897Z,19.90
2017-12-11T09:30:46.596Z,19.52
2017-12-11T09:33:14.269Z,18.15
2017-12-11T09:35:41.930Z,19.12
2017-12-11T09:38:09.641Z,19.20
2017-12-11T09:40:37.340Z,19.75
2017-12-11T09:43:05.064Z,19.40
2017-12-11T09:45:36.031Z,17.80
2017-12-11T09:48:03.736Z,19.05
2017-12-11T09:50:32.156Z,19.15
2017-12-11T09:52:59.959Z,18.85
2017-12-11T09:58:27.287Z,17.83
2017-12-11T10:00:55.052Z,19.30
2017-12-11T10:03:22.808Z,18.95
2017-12-11T10:05:52.972Z,18.10
2017-12-11T10:08:26.650Z,18.85
2017-12-11T10:10:54.340Z,18.15
2017-12-11T11:29:14.761Z,17.37
2017-12-11T11:31:43.174Z,17.83
2017-12-11T11:47:57.706Z,17.17
2017-12-11T11:53:28.436Z,18.65
2017-12-11T11:56:11.968Z,18.58
2017-12-11T11:58:39.702Z,18.98
2017-12-11T12:01:07.406Z,17.33
2017-12-11T12:03:35.059Z,17.40
2017-12-11T12:06:02.774Z,16.90
2017-12-11T12:08:30.378Z,18.77
2017-12-11T12:11:03.794Z,19.45
2017-12-11T12:13:31.491Z,18.55
2017-12-11T12:16:02.098Z,17.55
2017-12-11T12:18:53.634Z,16.20
2017-12-11T12:21:24.662Z,17.05
2017-12-11T12:24:20.663Z,16.98
2017-12-11T12:42:00.661Z,14.43
2017-12-11T12:44:33.407Z,15.73
2017-12-11T12:47:22.836Z,15.18
2017-12-11T12:56:07.960Z,17.65
2017-12-11T14:56:10.017Z,16.10
2017-12-11T15:02:05.085Z,16.83
2017-12-11T15:31:58.351Z,13.43
2017-12-11T15:34:25.961Z,16.23
2017-12-11T15:36:53.553Z,15.20
2017-12-11T15:39:21.196Z,15.45
2017-12-11T15:41:49.662Z,17.30
2017-12-11T15:44:17.248Z,17.23
2017-12-11T15:46:44.852Z,18.23
2017-12-11T15:55:01.661Z,18.20
2017-12-11T15:57:29.327Z,21.67
2017-12-11T15:59:56.988Z,19.30
2017-12-11T16:02:52.098Z,20.35
2017-12-11T16:05:26.444Z,15.18
2017-12-11T16:07:54.036Z,21.65
2017-12-11T16:10:21.733Z,22.67
2017-12-11T16:12:51.147Z,22.52
2017-12-11T16:15:19.666Z,21.70
2017-12-11T16:17:47.255Z,18.95
2017-12-11T16:20:14.828Z,21.12
2017-12-11T16:22:42.468Z,21.92
2017-12-11T16:25:10.128Z,22.25
2017-12-11T16:27:37.775Z,22.27
2017-12-11T16:30:05.428Z,21.33
2017-12-11T16:32:33.142Z,24.50
2017-12-11T16:35:00.797Z,22.33
2017-12-11T16:37:28.432Z,23.35
2017-12-11T16:39:56.349Z,22.50
2017-12-11T16:42:24.719Z,19.87
2017-12-11T16:44:52.296Z,20.60
2017-12-11T16:47:20.727Z,18.40
2017-12-11T16:49:48.371Z,18.00
2017-12-11T16:52:16.026Z,20.45
2017-12-11T16:54:43.649Z,18.92
2017-12-11T16:57:12.022Z,18.40
2017-12-11T16:59:39.644Z,18.35
2017-12-11T17:02:07.239Z,18.85
2017-12-11T17:04:34.786Z,19.27
2017-12-11T17:07:02.411Z,17.05
2017-12-11T17:09:30.029Z,17.80
2017-12-11T17:11:57.561Z,14.65
2017-12-11T17:14:25.218Z,19.50
2017-12-11T17:16:52.847Z,20.90
2017-12-11T17:19:20.405Z,19.55
2017-12-11T17:21:47.930Z,17.55
2017-12-11T17:24:15.636Z,15.75
2017-12-11T17:26:44.003Z,18.20
2017-12-11T17:29:11.676Z,22.33
2017-12-11T17:31:39.219Z,19.00
2017-12-11T17:34:06.777Z,19.87
2017-12-11T17:36:34.347Z,22.83
2017-12-11T17:39:01.927Z,20.00
2017-12-11T17:41:29.554Z,17.98
2017-12-11T17:43:57.284Z,17.08
2017-12-11T17:46:24.850Z,13.75
2017-12-11T17:48:52.353Z,17.90
2017-12-11T17:51:19.955Z,18.98
2017-12-11T17:53:53.249Z,18.48
2017-12-11T17:56:20.759Z,19.42
2017-12-11T17:58:49.070Z,21.48
2017-12-11T18:01:16.554Z,19.58
2017-12-11T18:03:44.159Z,22.42
2017-12-11T18:06:15.349Z,20.75
2017-12-11T18:08:42.936Z,20.00
2017-12-11T18:11:10.424Z,17.65
2017-12-11T18:13:37.961Z,14.65
2017-12-11T18:16:05.564Z,22.10
2017-12-11T18:18:33.121Z,19.62
2017-12-11T18:21:00.648Z,20.73
2017-12-11T18:23:28.209Z,19.58
2017-12-11T18:25:55.803Z,17.73
2017-12-11T18:28:23.390Z,20.37
2017-12-11T18:30:50.935Z,16.17
2017-12-11T18:33:18.447Z,20.12
2017-12-11T18:35:46.746Z,18.30
2017-12-11T18:38:14.234Z,20.95
2017-12-11T18:40:41.752Z,21.92
2017-12-11T18:43:09.351Z,24.25
2017-12-11T18:45:36.874Z,20.73
2017-12-11T18:48:04.433Z,16.62
2017-12-11T18:50:31.946Z,11.63
2017-12-11T18:52:59.514Z,14.10
2017-12-11T18:55:27.037Z,18.37
2017-12-11T18:57:54.569Z,16.98
2017-12-11T19:00:22.054Z,11.82
2017-12-11T19:02:49.599Z,15.70
2017-12-11T19:05:17.121Z,14.98
2017-12-11T19:07:45.433Z,9.60
2017-12-11T19:10:13.116Z,11.63
2017-12-11T19:23:10.166Z,10.88
2017-12-11T19:25:38.557Z,11.85
2017-12-11T19:28:06.972Z,12.40
2017-12-11T19:30:34.571Z,9.73
2017-12-11T19:33:02.984Z,13.00
2017-12-11T19:35:31.351Z,11.05
2017-12-11T19:37:58.976Z,8.75
2017-12-11T19:40:26.571Z,13.97
2017-12-11T19:42:54.936Z,8.30
2017-12-11T19:45:22.492Z,10.63
2017-12-11T19:47:54.183Z,8.30
2017-12-11T19:50:23.433Z,10.27
2017-12-11T19:52:51.059Z,11.80
2017-12-11T19:55:18.640Z,13.00
2017-12-11T19:57:46.215Z,8.85
2017-12-11T20:00:13.818Z,8.18
2017-12-11T20:02:42.732Z,8.43
2017-12-11T20:05:13.801Z,8.40
2017-12-11T20:07:42.178Z,10.00
2017-12-11T20:10:11.516Z,8.07
2017-12-11T20:12:40.849Z,6.80
2017-12-11T20:15:08.964Z,8.55
2017-12-11T20:17:36.555Z,8.77
2017-12-11T20:20:04.095Z,7.82
2017-12-11T20:22:31.607Z,9.52
2017-12-11T20:24:59.179Z,7.22
2017-12-11T20:27:26.708Z,6.93
2017-12-11T20:29:55.083Z,5.00
2017-12-11T20:32:22.747Z,5.28
2017-12-11T20:34:50.364Z,6.90
2017-12-11T20:37:18.822Z,5.57
2017-12-11T20:39:46.389Z,3.87
2017-12-11T20:42:13.872Z,7.97
2017-12-11T20:44:41.395Z,5.45
2017-12-11T20:47:08.885Z,6.80
2017-12-11T20:49:37.204Z,6.43
2017-12-11T20:52:05.497Z,5.18
2017-12-11T20:54:33.005Z,5.65
2017-12-11T20:57:00.511Z,6.22
2017-12-11T20:59:28.044Z,5.55
2017-12-11T21:01:56.326Z,7.00
2017-12-11T21:04:23.945Z,4.75
2017-12-11T21:06:51.438Z,4.60
2017-12-11T21:09:18.984Z,5.72
2017-12-11T21:11:46.535Z,8.05
2017-12-11T21:14:14.081Z,7.45
2017-12-11T21:16:41.596Z,7.45
2017-12-11T21:19:09.946Z,7.60
2017-12-11T21:21:37.447Z,7.12
2017-12-11T21:24:04.990Z,7.97
2017-12-11T21:26:32.549Z,7.72
2017-12-11T21:29:00.808Z,7.97
2017-12-11T21:31:28.335Z,8.05
2017-12-11T21:33:55.873Z,7.68
2017-12-11T21:36:23.371Z,7.68
2017-12-11T21:38:50.953Z,7.25
2017-12-11T21:41:18.471Z,7.22
2017-12-11T21:43:45.989Z,8.82
2017-12-11T21:46:13.535Z,7.62
2017-12-11T21:48:41.812Z,8.48
2017-12-11T21:51:11.297Z,8.07
2017-12-11T21:53:38.839Z,9.90
2017-12-11T21:56:06.315Z,7.97
2017-12-11T21:58:33.856Z,9.02
2017-12-11T22:01:01.376Z,10.70
2017-12-11T22:03:28.903Z,10.85
2017-12-11T22:05:57.177Z,10.27
2017-12-11T22:08:24.682Z,6.57
2017-12-11T22:10:52.192Z,8.00
2017-12-11T22:13:20.494Z,8.30
2017-12-11T22:15:48.983Z,9.88
2017-12-11T22:18:16.480Z,9.55
2017-12-11T22:20:43.997Z,8.43
2017-12-11T22:23:11.553Z,8.80
2017-12-11T22:25:39.117Z,10.30
2017-12-11T22:28:06.668Z,10.65
2017-12-11T22:30:34.165Z,8.30
2017-12-11T22:33:01.713Z,11.45
2017-12-11T22:35:29.290Z,10.23
2017-12-11T22:37:57.049Z,11.05
2017-12-11T22:40:24.534Z,10.85
2017-12-11T22:42:52.081Z,11.50
2017-12-11T22:45:19.604Z,11.52
2017-12-11T22:47:47.689Z,11.57
2017-12-11T22:50:15.437Z,10.82
2017-12-11T22:52:42.969Z,7.65
2017-12-11T22:55:11.257Z,10.63
2017-12-11T22:57:38.789Z,10.70
2017-12-11T23:00:06.330Z,11.02
2017-12-11T23:02:33.823Z,10.27
2017-12-11T23:05:01.409Z,8.70
2017-12-11T23:07:29.412Z,8.45
2017-12-11T23:09:57.691Z,9.95
2017-12-11T23:12:25.198Z,10.48
2017-12-11T23:14:52.726Z,10.43
2017-12-11T23:17:20.228Z,9.85
2017-12-11T23:19:47.757Z,9.85
2017-12-11T23:22:16.810Z,9.80
2017-12-11T23:24:44.332Z,9.45
2017-12-11T23:27:11.903Z,10.55
2017-12-11T23:29:39.426Z,10.43
2017-12-11T23:32:07.709Z,10.23
2017-12-11T23:34:36.007Z,10.00
2017-12-11T23:37:03.519Z,9.57
2017-12-11T23:39:31.037Z,8.75
2017-12-11T23:41:58.512Z,8.88
2017-12-11T23:44:26.070Z,9.73
2017-12-11T23:46:53.574Z,9.52
2017-12-11T23:49:21.109Z,10.02
2017-12-11T23:51:48.591Z,8.70
2017-12-11T23:54:28.651Z,10.35
2017-12-11T23:56:56.919Z,10.90
2017-12-11T23:59:25.198Z,10.63
